sensor_id;sensor_type;location;lat;lon;timestamp;temperature;humidity
5842;DHT22;2947;52.276;9.946;2023-02-01T00:02:07;5.40;99.90
5842;DHT22;2947;52.276;9.946;2023-02-01T00:04:35;5.30;99.90
5842;DHT22;2947;52.276;9.946;2023-02-01T00:07:01;5.30;99.90
5842;DHT22;2947;52.276;9.946;2023-02-01T00:09:26;5.40;99.90
5842;DHT22;2947;52.276;9.946;2023-02-01T00:11:52;5.40;1.00
5842;DHT22;2947;52.276;9.946;2023-02-01T00:14:18;5.30;1.00
5842;DHT22;2947;52.276;9.946;2023-02-01T00:16:44;5.30;1.00
5842;DHT22;2947;52.276;9.946;2023-02-01T00:19:12;5.30;1.00
5842;DHT22;2947;52.276;9.946;2023-02-01T00:21:39;5.30;1.00
5842;DHT22;2947;52.276;9.946;2023-02-01T00:24:05;5.30;1.00
5842;DHT22;2947;52.276;9.946;2023-02-01T00:26:35;5.30;99.90
5842;DHT22;2947;52.276;9.946;2023-02-01T00:29:05;5.20;99.90
5842;DHT22;2947;52.276;9.946;2023-02-01T00:31:32;5.30;99.90
5842;DHT22;2947;52.276;9.946;2023-02-01T00:33:58;5.30;99.90
5842;DHT22;2947;52.276;9.946;2023-02-01T00:36:24;5.20;1.00
5842;DHT22;2947;52.276;9.946;2023-02-01T00:38:50;5.30;1.00
5842;DHT22;2947;52.276;9.946;2023-02-01T00:41:20;5.20;99.90
5842;DHT22;2947;52.276;9.946;2023-02-01T00:43:47;5.30;99.90
5842;DHT22;2947;52.276;9.946;2023-02-01T00:46:14;5.30;99.90
5842;DHT22;2947;52.276;9.946;2023-02-01T00:48:42;5.20;1.00
5842;DHT22;2947;52.276;9.946;2023-02-01T00:51:14;5.20;99.90
5842;DHT22;2947;52.276;9.946;2023-02-01T00:53:42;5.20;99.90
5842;DHT22;2947;52.276;9.946;2023-02-01T00:56:10;5.20;99.90
5842;DHT22;2947;52.276;9.946;2023-02-01T00:58:36;5.20;1.00
5842;DHT22;2947;52.276;9.946;2023-02-01T01:01:08;5.20;54.80
5842;DHT22;2947;52.276;9.946;2023-02-01T01:03:39;5.20;99.90
5842;DHT22;2947;52.276;9.946;2023-02-01T01:06:10;5.20;99.90
5842;DHT22;2947;52.276;9.946;2023-02-01T01:08:38;5.10;99.90
5842;DHT22;2947;52.276;9.946;2023-02-01T01:11:10;5.10;15.60
5842;DHT22;2947;52.276;9.946;2023-02-01T01:13:38;5.10;1.00
5842;DHT22;2947;52.276;9.946;2023-02-01T01:16:05;5.20;1.00
5842;DHT22;2947;52.276;9.946;2023-02-01T01:18:32;5.10;99.90
5842;DHT22;2947;52.276;9.946;2023-02-01T01:21:01;5.10;1.00
5842;DHT22;2947;52.276;9.946;2023-02-01T01:23:27;5.10;1.00
5842;DHT22;2947;52.276;9.946;2023-02-01T01:25:53;5.10;99.90
5842;DHT22;2947;52.276;9.946;2023-02-01T01:28:19;5.00;99.90
5842;DHT22;2947;52.276;9.946;2023-02-01T01:30:45;5.00;99.90
5842;DHT22;2947;52.276;9.946;2023-02-01T01:33:11;5.00;99.90
5842;DHT22;2947;52.276;9.946;2023-02-01T01:35:37;5.00;1.00
5842;DHT22;2947;52.276;9.946;2023-02-01T01:38:04;5.00;1.00
5842;DHT22;2947;52.276;9.946;2023-02-01T01:40:31;5.00;1.00
5842;DHT22;2947;52.276;9.946;2023-02-01T01:42:59;5.00;1.00
5842;DHT22;2947;52.276;9.946;2023-02-01T01:45:33;4.90;1.00
5842;DHT22;2947;52.276;9.946;2023-02-01T01:48:07;4.90;1.00
5842;DHT22;2947;52.276;9.946;2023-02-01T01:50:44;4.90;1.00
5842;DHT22;2947;52.276;9.946;2023-02-01T01:53:18;4.90;1.00
5842;DHT22;2947;52.276;9.946;2023-02-01T01:55:47;4.90;1.00
5842;DHT22;2947;52.276;9.946;2023-02-01T01:58:19;4.90;42.70
5842;DHT22;2947;52.276;9.946;2023-02-01T02:00:47;4.90;99.90
5842;DHT22;2947;52.276;9.946;2023-02-01T02:03:32;4.90;99.90
5842;DHT22;2947;52.276;9.946;2023-02-01T02:06:02;4.90;99.90
5842;DHT22;2947;52.276;9.946;2023-02-01T02:08:29;4.80;99.90
5842;DHT22;2947;52.276;9.946;2023-02-01T02:10:55;4.80;99.90
5842;DHT22;2947;52.276;9.946;2023-02-01T02:13:41;4.80;99.90
5842;DHT22;2947;52.276;9.946;2023-02-01T02:30:44;4.80;99.90
5842;DHT22;2947;52.276;9.946;2023-02-01T02:43:28;4.80;99.90
5842;DHT22;2947;52.276;9.946;2023-02-01T02:45:54;4.80;99.90
5842;DHT22;2947;52.276;9.946;2023-02-01T02:49:15;4.90;99.90
5842;DHT22;2947;52.276;9.946;2023-02-01T02:51:53;4.90;99.90
5842;DHT22;2947;52.276;9.946;2023-02-01T02:54:45;4.90;99.90
5842;DHT22;2947;52.276;9.946;2023-02-01T02:57:18;4.90;99.90
5842;DHT22;2947;52.276;9.946;2023-02-01T03:00:12;4.90;99.90
5842;DHT22;2947;52.276;9.946;2023-02-01T03:03:00;4.90;99.90
5842;DHT22;2947;52.276;9.946;2023-02-01T03:05:47;4.90;99.90
5842;DHT22;2947;52.276;9.946;2023-02-01T03:08:20;4.90;99.90
5842;DHT22;2947;52.276;9.946;2023-02-01T03:16:28;4.90;99.90
5842;DHT22;2947;52.276;9.946;2023-02-01T03:19:06;4.90;99.90
5842;DHT22;2947;52.276;9.946;2023-02-01T03:21:46;4.90;99.90
5842;DHT22;2947;52.276;9.946;2023-02-01T03:24:22;4.90;99.90
5842;DHT22;2947;52.276;9.946;2023-02-01T03:27:11;4.90;99.90
5842;DHT22;2947;52.276;9.946;2023-02-01T03:32:39;5.00;99.90
5842;DHT22;2947;52.276;9.946;2023-02-01T03:41:36;5.10;99.90
5842;DHT22;2947;52.276;9.946;2023-02-01T03:44:25;5.10;99.90
5842;DHT22;2947;52.276;9.946;2023-02-01T03:49:33;5.10;99.90
5842;DHT22;2947;52.276;9.946;2023-02-01T03:52:01;5.10;99.90
5842;DHT22;2947;52.276;9.946;2023-02-01T03:54:30;5.20;99.90
5842;DHT22;2947;52.276;9.946;2023-02-01T03:57:01;5.10;1.00
5842;DHT22;2947;52.276;9.946;2023-02-01T03:59:33;5.20;1.00
5842;DHT22;2947;52.276;9.946;2023-02-01T04:01:58;5.20;99.90
5842;DHT22;2947;52.276;9.946;2023-02-01T04:04:25;5.20;1.00
5842;DHT22;2947;52.276;9.946;2023-02-01T04:06:50;5.20;1.00
5842;DHT22;2947;52.276;9.946;2023-02-01T04:09:17;5.10;1.00
5842;DHT22;2947;52.276;9.946;2023-02-01T04:11:43;5.10;1.00
5842;DHT22;2947;52.276;9.946;2023-02-01T04:14:09;5.10;1.00
5842;DHT22;2947;52.276;9.946;2023-02-01T04:16:35;5.10;1.00
5842;DHT22;2947;52.276;9.946;2023-02-01T04:19:01;5.00;1.00
5842;DHT22;2947;52.276;9.946;2023-02-01T04:21:27;5.00;1.00
5842;DHT22;2947;52.276;9.946;2023-02-01T04:23:55;5.00;1.00
5842;DHT22;2947;52.276;9.946;2023-02-01T04:26:21;5.00;1.00
5842;DHT22;2947;52.276;9.946;2023-02-01T04:28:47;5.00;1.00
5842;DHT22;2947;52.276;9.946;2023-02-01T04:31:14;5.00;1.00
5842;DHT22;2947;52.276;9.946;2023-02-01T04:33:41;5.00;1.00
5842;DHT22;2947;52.276;9.946;2023-02-01T04:36:07;5.00;1.00
5842;DHT22;2947;52.276;9.946;2023-02-01T04:38:33;5.00;1.00
5842;DHT22;2947;52.276;9.946;2023-02-01T04:40:59;5.10;1.00
5842;DHT22;2947;52.276;9.946;2023-02-01T04:43:25;5.10;1.00
5842;DHT22;2947;52.276;9.946;2023-02-01T04:45:53;5.10;1.00
5842;DHT22;2947;52.276;9.946;2023-02-01T04:48:19;5.10;1.00
5842;DHT22;2947;52.276;9.946;2023-02-01T04:50:46;5.00;1.00
5842;DHT22;2947;52.276;9.946;2023-02-01T04:53:17;5.10;1.00
5842;DHT22;2947;52.276;9.946;2023-02-01T04:55:43;5.10;1.00
5842;DHT22;2947;52.276;9.946;2023-02-01T04:58:09;5.10;1.00
5842;DHT22;2947;52.276;9.946;2023-02-01T05:00:36;5.20;1.00
5842;DHT22;2947;52.276;9.946;2023-02-01T05:03:03;5.20;1.00
5842;DHT22;2947;52.276;9.946;2023-02-01T05:05:29;5.20;1.00
5842;DHT22;2947;52.276;9.946;2023-02-01T05:07:56;5.20;1.00
5842;DHT22;2947;52.276;9.946;2023-02-01T05:10:22;5.10;1.00
5842;DHT22;2947;52.276;9.946;2023-02-01T05:12:47;5.10;1.00
5842;DHT22;2947;52.276;9.946;2023-02-01T05:15:32;5.10;1.00
5842;DHT22;2947;52.276;9.946;2023-02-01T05:17:58;5.10;1.00
5842;DHT22;2947;52.276;9.946;2023-02-01T05:20:24;5.10;1.00
5842;DHT22;2947;52.276;9.946;2023-02-01T05:22:52;5.10;4.80
5842;DHT22;2947;52.276;9.946;2023-02-01T05:25:17;5.00;1.00
5842;DHT22;2947;52.276;9.946;2023-02-01T05:27:44;5.00;1.00
5842;DHT22;2947;52.276;9.946;2023-02-01T05:30:10;5.00;1.00
5842;DHT22;2947;52.276;9.946;2023-02-01T05:32:36;5.00;7.80
5842;DHT22;2947;52.276;9.946;2023-02-01T05:35:02;5.00;2.60
5842;DHT22;2947;52.276;9.946;2023-02-01T05:37:29;5.00;1.00
5842;DHT22;2947;52.276;9.946;2023-02-01T05:39:54;5.00;15.20
5842;DHT22;2947;52.276;9.946;2023-02-01T05:42:20;5.00;26.50
5842;DHT22;2947;52.276;9.946;2023-02-01T05:44:46;5.00;45.10
5842;DHT22;2947;52.276;9.946;2023-02-01T05:47:12;5.00;56.10
5842;DHT22;2947;52.276;9.946;2023-02-01T05:49:38;5.00;49.00
5842;DHT22;2947;52.276;9.946;2023-02-01T05:52:04;5.00;47.20
5842;DHT22;2947;52.276;9.946;2023-02-01T05:54:29;5.00;40.90
5842;DHT22;2947;52.276;9.946;2023-02-01T05:56:55;5.00;37.40
5842;DHT22;2947;52.276;9.946;2023-02-01T05:59:21;5.00;24.60
5842;DHT22;2947;52.276;9.946;2023-02-01T06:01:46;5.00;1.00
5842;DHT22;2947;52.276;9.946;2023-02-01T06:04:12;5.00;1.00
5842;DHT22;2947;52.276;9.946;2023-02-01T06:06:38;5.00;1.00
5842;DHT22;2947;52.276;9.946;2023-02-01T06:09:04;5.00;1.00
5842;DHT22;2947;52.276;9.946;2023-02-01T06:11:30;5.00;1.00
5842;DHT22;2947;52.276;9.946;2023-02-01T06:13:57;5.10;1.00
5842;DHT22;2947;52.276;9.946;2023-02-01T06:16:23;5.10;1.50
5842;DHT22;2947;52.276;9.946;2023-02-01T06:18:49;5.10;5.70
5842;DHT22;2947;52.276;9.946;2023-02-01T06:21:14;5.10;11.40
5842;DHT22;2947;52.276;9.946;2023-02-01T06:23:51;5.10;10.00
5842;DHT22;2947;52.276;9.946;2023-02-01T06:26:18;5.10;1.00
5842;DHT22;2947;52.276;9.946;2023-02-01T06:28:44;5.00;1.00
5842;DHT22;2947;52.276;9.946;2023-02-01T06:31:10;5.10;1.00
5842;DHT22;2947;52.276;9.946;2023-02-01T06:33:38;5.10;1.00
5842;DHT22;2947;52.276;9.946;2023-02-01T06:36:06;5.10;1.00
5842;DHT22;2947;52.276;9.946;2023-02-01T06:38:34;5.10;1.00
5842;DHT22;2947;52.276;9.946;2023-02-01T06:41:00;5.10;1.00
5842;DHT22;2947;52.276;9.946;2023-02-01T06:43:27;5.10;1.00
5842;DHT22;2947;52.276;9.946;2023-02-01T06:45:59;5.10;1.00
5842;DHT22;2947;52.276;9.946;2023-02-01T06:48:30;5.10;1.00
5842;DHT22;2947;52.276;9.946;2023-02-01T06:50:56;5.10;1.00
5842;DHT22;2947;52.276;9.946;2023-02-01T06:53:22;5.10;3.30
5842;DHT22;2947;52.276;9.946;2023-02-01T06:55:55;5.10;11.90
5842;DHT22;2947;52.276;9.946;2023-02-01T06:58:27;5.10;19.40
5842;DHT22;2947;52.276;9.946;2023-02-01T07:00:54;5.00;26.40
5842;DHT22;2947;52.276;9.946;2023-02-01T07:03:20;5.00;28.30
5842;DHT22;2947;52.276;9.946;2023-02-01T07:05:45;5.00;67.20
5842;DHT22;2947;52.276;9.946;2023-02-01T07:08:11;4.90;91.50
5842;DHT22;2947;52.276;9.946;2023-02-01T07:10:37;4.90;93.60
5842;DHT22;2947;52.276;9.946;2023-02-01T07:13:03;4.90;94.90
5842;DHT22;2947;52.276;9.946;2023-02-01T07:15:30;4.90;97.40
5842;DHT22;2947;52.276;9.946;2023-02-01T07:17:56;5.00;92.40
5842;DHT22;2947;52.276;9.946;2023-02-01T07:20:23;5.00;88.40
5842;DHT22;2947;52.276;9.946;2023-02-01T07:22:53;5.00;84.00
5842;DHT22;2947;52.276;9.946;2023-02-01T07:25:20;5.00;99.90
5842;DHT22;2947;52.276;9.946;2023-02-01T07:27:45;5.00;99.90
5842;DHT22;2947;52.276;9.946;2023-02-01T07:30:12;5.00;99.90
5842;DHT22;2947;52.276;9.946;2023-02-01T07:32:38;5.00;99.90
5842;DHT22;2947;52.276;9.946;2023-02-01T07:35:04;5.00;99.90
5842;DHT22;2947;52.276;9.946;2023-02-01T07:37:30;5.00;92.70
5842;DHT22;2947;52.276;9.946;2023-02-01T07:39:57;5.00;76.80
5842;DHT22;2947;52.276;9.946;2023-02-01T07:42:23;5.10;60.00
5842;DHT22;2947;52.276;9.946;2023-02-01T07:44:48;5.10;41.40
5842;DHT22;2947;52.276;9.946;2023-02-01T07:47:14;5.10;30.30
5842;DHT22;2947;52.276;9.946;2023-02-01T07:49:41;5.20;23.20
5842;DHT22;2947;52.276;9.946;2023-02-01T07:52:06;5.20;6.80
5842;DHT22;2947;52.276;9.946;2023-02-01T07:54:33;5.20;1.00
5842;DHT22;2947;52.276;9.946;2023-02-01T07:56:58;5.30;1.00
5842;DHT22;2947;52.276;9.946;2023-02-01T07:59:24;5.30;1.00
5842;DHT22;2947;52.276;9.946;2023-02-01T08:01:50;5.40;1.00
5842;DHT22;2947;52.276;9.946;2023-02-01T08:04:16;5.40;1.00
5842;DHT22;2947;52.276;9.946;2023-02-01T08:06:42;5.40;1.00
5842;DHT22;2947;52.276;9.946;2023-02-01T08:09:07;5.40;1.00
5842;DHT22;2947;52.276;9.946;2023-02-01T08:11:33;5.50;1.00
5842;DHT22;2947;52.276;9.946;2023-02-01T08:14:01;5.50;1.00
5842;DHT22;2947;52.276;9.946;2023-02-01T08:16:27;5.50;1.00
5842;DHT22;2947;52.276;9.946;2023-02-01T08:18:53;5.50;1.00
5842;DHT22;2947;52.276;9.946;2023-02-01T08:21:22;5.50;1.00
5842;DHT22;2947;52.276;9.946;2023-02-01T08:23:50;5.50;1.00
5842;DHT22;2947;52.276;9.946;2023-02-01T08:26:18;5.60;1.00
5842;DHT22;2947;52.276;9.946;2023-02-01T08:28:47;5.60;1.00
5842;DHT22;2947;52.276;9.946;2023-02-01T08:31:17;5.60;1.00
5842;DHT22;2947;52.276;9.946;2023-02-01T08:33:53;5.70;1.00
5842;DHT22;2947;52.276;9.946;2023-02-01T08:36:21;5.70;1.00
5842;DHT22;2947;52.276;9.946;2023-02-01T08:38:48;5.70;1.00
5842;DHT22;2947;52.276;9.946;2023-02-01T08:41:17;5.70;1.00
5842;DHT22;2947;52.276;9.946;2023-02-01T08:43:44;5.70;1.00
5842;DHT22;2947;52.276;9.946;2023-02-01T08:46:11;5.70;1.00
5842;DHT22;2947;52.276;9.946;2023-02-01T08:48:37;5.80;1.00
5842;DHT22;2947;52.276;9.946;2023-02-01T08:51:09;5.80;1.00
5842;DHT22;2947;52.276;9.946;2023-02-01T08:53:37;5.80;1.00
5842;DHT22;2947;52.276;9.946;2023-02-01T08:56:05;5.90;1.00
5842;DHT22;2947;52.276;9.946;2023-02-01T08:58:32;5.80;1.00
5842;DHT22;2947;52.276;9.946;2023-02-01T09:01:06;5.80;1.00
5842;DHT22;2947;52.276;9.946;2023-02-01T09:03:34;5.90;1.00
5842;DHT22;2947;52.276;9.946;2023-02-01T09:06:08;5.90;1.00
5842;DHT22;2947;52.276;9.946;2023-02-01T09:08:36;5.90;1.00
5842;DHT22;2947;52.276;9.946;2023-02-01T09:11:06;6.00;99.90
5842;DHT22;2947;52.276;9.946;2023-02-01T09:13:33;6.00;99.90
5842;DHT22;2947;52.276;9.946;2023-02-01T09:15:59;6.00;1.00
5842;DHT22;2947;52.276;9.946;2023-02-01T09:18:27;6.10;99.90
5842;DHT22;2947;52.276;9.946;2023-02-01T09:20:53;6.10;99.90
5842;DHT22;2947;52.276;9.946;2023-02-01T09:23:19;6.20;99.90
5842;DHT22;2947;52.276;9.946;2023-02-01T09:25:47;6.20;1.00
5842;DHT22;2947;52.276;9.946;2023-02-01T09:28:16;6.20;8.60
5842;DHT22;2947;52.276;9.946;2023-02-01T09:30:42;6.20;1.00
5842;DHT22;2947;52.276;9.946;2023-02-01T09:33:08;6.30;1.00
5842;DHT22;2947;52.276;9.946;2023-02-01T09:35:34;6.30;99.90
5842;DHT22;2947;52.276;9.946;2023-02-01T09:37:59;6.30;99.90
5842;DHT22;2947;52.276;9.946;2023-02-01T09:40:27;6.40;1.00
5842;DHT22;2947;52.276;9.946;2023-02-01T09:48:27;6.40;99.90
5842;DHT22;2947;52.276;9.946;2023-02-01T09:50:57;6.40;1.00
5842;DHT22;2947;52.276;9.946;2023-02-01T09:53:37;6.50;99.90
5842;DHT22;2947;52.276;9.946;2023-02-01T09:58:58;6.50;1.00
5842;DHT22;2947;52.276;9.946;2023-02-01T10:01:44;6.50;99.90
5842;DHT22;2947;52.276;9.946;2023-02-01T10:04:13;6.50;1.00
5842;DHT22;2947;52.276;9.946;2023-02-01T10:12:49;6.60;99.90
5842;DHT22;2947;52.276;9.946;2023-02-01T10:27:20;6.70;99.90
5842;DHT22;2947;52.276;9.946;2023-02-01T10:29:54;6.70;99.90
5842;DHT22;2947;52.276;9.946;2023-02-01T10:32:27;6.70;99.90
5842;DHT22;2947;52.276;9.946;2023-02-01T10:35:13;6.80;1.00
5842;DHT22;2947;52.276;9.946;2023-02-01T10:37:43;6.80;99.90
5842;DHT22;2947;52.276;9.946;2023-02-01T10:42:48;6.90;1.00
5842;DHT22;2947;52.276;9.946;2023-02-01T10:45:19;6.90;99.90
5842;DHT22;2947;52.276;9.946;2023-02-01T10:47:50;7.00;99.90
5842;DHT22;2947;52.276;9.946;2023-02-01T10:53:24;7.00;1.00
5842;DHT22;2947;52.276;9.946;2023-02-01T10:56:12;7.00;1.00
5842;DHT22;2947;52.276;9.946;2023-02-01T10:58:46;7.00;99.90
5842;DHT22;2947;52.276;9.946;2023-02-01T11:01:30;7.00;1.00
5842;DHT22;2947;52.276;9.946;2023-02-01T11:04:10;7.00;99.90
5842;DHT22;2947;52.276;9.946;2023-02-01T11:09:49;7.00;1.00
5842;DHT22;2947;52.276;9.946;2023-02-01T11:12:27;7.00;1.00
5842;DHT22;2947;52.276;9.946;2023-02-01T11:15:19;7.00;99.90
5842;DHT22;2947;52.276;9.946;2023-02-01T11:17:48;7.00;99.90
5842;DHT22;2947;52.276;9.946;2023-02-01T11:20:38;6.90;99.90
5842;DHT22;2947;52.276;9.946;2023-02-01T11:23:05;7.00;99.90
5842;DHT22;2947;52.276;9.946;2023-02-01T11:25:36;7.00;99.90
5842;DHT22;2947;52.276;9.946;2023-02-01T11:28:02;6.90;99.90
5842;DHT22;2947;52.276;9.946;2023-02-01T11:30:38;7.00;99.90
5842;DHT22;2947;52.276;9.946;2023-02-01T11:33:20;6.90;99.90
5842;DHT22;2947;52.276;9.946;2023-02-01T11:35:52;6.90;22.10
5842;DHT22;2947;52.276;9.946;2023-02-01T11:38:30;6.90;1.00
5842;DHT22;2947;52.276;9.946;2023-02-01T11:41:23;6.90;34.30
5842;DHT22;2947;52.276;9.946;2023-02-01T11:43:57;7.00;50.60
5842;DHT22;2947;52.276;9.946;2023-02-01T11:46:34;7.00;99.90
5842;DHT22;2947;52.276;9.946;2023-02-01T11:52:10;6.90;99.90
5842;DHT22;2947;52.276;9.946;2023-02-01T11:58:12;7.00;99.90
5842;DHT22;2947;52.276;9.946;2023-02-01T12:00:51;7.00;99.90
5842;DHT22;2947;52.276;9.946;2023-02-01T12:03:47;7.00;99.90
5842;DHT22;2947;52.276;9.946;2023-02-01T12:11:51;7.20;99.90
5842;DHT22;2947;52.276;9.946;2023-02-01T12:17:57;7.10;99.90
5842;DHT22;2947;52.276;9.946;2023-02-01T12:21:04;7.10;56.10
5842;DHT22;2947;52.276;9.946;2023-02-01T12:29:48;7.10;99.90
5842;DHT22;2947;52.276;9.946;2023-02-01T12:32:56;7.10;99.90
5842;DHT22;2947;52.276;9.946;2023-02-01T12:43:07;7.00;1.00
5842;DHT22;2947;52.276;9.946;2023-02-01T12:45:46;6.90;99.90
5842;DHT22;2947;52.276;9.946;2023-02-01T12:49:05;6.80;1.00
5842;DHT22;2947;52.276;9.946;2023-02-01T12:51:22;6.70;99.90
5842;DHT22;2947;52.276;9.946;2023-02-01T12:56:55;6.50;1.00
5842;DHT22;2947;52.276;9.946;2023-02-01T12:59:39;6.40;1.00
5842;DHT22;2947;52.276;9.946;2023-02-01T13:02:22;6.30;1.00
5842;DHT22;2947;52.276;9.946;2023-02-01T13:04:59;6.30;1.00
5842;DHT22;2947;52.276;9.946;2023-02-01T13:07:51;6.30;1.00
5842;DHT22;2947;52.276;9.946;2023-02-01T13:10:40;6.30;1.00
5842;DHT22;2947;52.276;9.946;2023-02-01T13:16:06;7.00;1.00
5842;DHT22;2947;52.276;9.946;2023-02-01T13:18:42;6.30;1.00
5842;DHT22;2947;52.276;9.946;2023-02-01T13:21:24;6.30;1.00
5842;DHT22;2947;52.276;9.946;2023-02-01T13:23:52;6.30;1.00
5842;DHT22;2947;52.276;9.946;2023-02-01T13:26:18;6.20;1.00
5842;DHT22;2947;52.276;9.946;2023-02-01T13:28:56;6.20;1.00
5842;DHT22;2947;52.276;9.946;2023-02-01T13:37:52;6.10;1.00
5842;DHT22;2947;52.276;9.946;2023-02-01T13:43:24;6.00;1.00
5842;DHT22;2947;52.276;9.946;2023-02-01T13:45:56;6.00;1.00
5842;DHT22;2947;52.276;9.946;2023-02-01T13:48:29;5.90;1.00
5842;DHT22;2947;52.276;9.946;2023-02-01T13:51:01;5.20;1.00
5842;DHT22;2947;52.276;9.946;2023-02-01T13:53:33;4.30;1.00
5842;DHT22;2947;52.276;9.946;2023-02-01T13:58:39;3.50;1.00
5842;DHT22;2947;52.276;9.946;2023-02-01T14:04:00;3.30;23.60
5842;DHT22;2947;52.276;9.946;2023-02-01T14:09:18;3.40;87.90
5842;DHT22;2947;52.276;9.946;2023-02-01T14:12:04;3.30;88.60
5842;DHT22;2947;52.276;9.946;2023-02-01T14:15:22;3.30;93.40
5842;DHT22;2947;52.276;9.946;2023-02-01T14:17:49;3.20;99.90
5842;DHT22;2947;52.276;9.946;2023-02-01T14:20:41;3.20;99.90
5842;DHT22;2947;52.276;9.946;2023-02-01T14:23:20;3.10;99.90
5842;DHT22;2947;52.276;9.946;2023-02-01T14:25:59;3.00;99.90
5842;DHT22;2947;52.276;9.946;2023-02-01T14:28:29;2.90;99.90
5842;DHT22;2947;52.276;9.946;2023-02-01T14:30:57;2.90;99.90
5842;DHT22;2947;52.276;9.946;2023-02-01T14:33:26;2.90;99.90
5842;DHT22;2947;52.276;9.946;2023-02-01T14:36:11;2.90;99.90
5842;DHT22;2947;52.276;9.946;2023-02-01T14:38:39;2.90;99.90
5842;DHT22;2947;52.276;9.946;2023-02-01T14:41:33;2.90;99.90
5842;DHT22;2947;52.276;9.946;2023-02-01T14:49:59;2.80;99.90
5842;DHT22;2947;52.276;9.946;2023-02-01T14:52:37;2.80;99.90
5842;DHT22;2947;52.276;9.946;2023-02-01T14:55:57;2.90;99.90
5842;DHT22;2947;52.276;9.946;2023-02-01T15:01:15;2.90;99.90
5842;DHT22;2947;52.276;9.946;2023-02-01T15:07:05;2.90;99.90
5842;DHT22;2947;52.276;9.946;2023-02-01T15:09:44;2.90;99.90
5842;DHT22;2947;52.276;9.946;2023-02-01T15:14:46;3.00;99.90
5842;DHT22;2947;52.276;9.946;2023-02-01T15:17:21;3.00;99.90
5842;DHT22;2947;52.276;9.946;2023-02-01T15:20:00;3.00;99.90
5842;DHT22;2947;52.276;9.946;2023-02-01T15:22:30;3.00;99.90
5842;DHT22;2947;52.276;9.946;2023-02-01T15:24:58;3.00;99.90
5842;DHT22;2947;52.276;9.946;2023-02-01T15:27:29;3.00;99.90
5842;DHT22;2947;52.276;9.946;2023-02-01T15:30:06;3.10;99.90
5842;DHT22;2947;52.276;9.946;2023-02-01T15:33:24;3.10;99.90
5842;DHT22;2947;52.276;9.946;2023-02-01T15:35:52;3.10;99.90
5842;DHT22;2947;52.276;9.946;2023-02-01T15:41:06;3.30;99.90
5842;DHT22;2947;52.276;9.946;2023-02-01T15:43:48;3.30;99.90
5842;DHT22;2947;52.276;9.946;2023-02-01T15:46:40;3.30;99.90
5842;DHT22;2947;52.276;9.946;2023-02-01T15:49:29;3.30;99.90
5842;DHT22;2947;52.276;9.946;2023-02-01T15:51:59;3.40;99.90
5842;DHT22;2947;52.276;9.946;2023-02-01T15:54:29;3.30;99.90
5842;DHT22;2947;52.276;9.946;2023-02-01T15:57:07;3.40;99.90
5842;DHT22;2947;52.276;9.946;2023-02-01T15:59:42;3.30;99.90
5842;DHT22;2947;52.276;9.946;2023-02-01T16:02:41;3.40;99.90
5842;DHT22;2947;52.276;9.946;2023-02-01T16:05:37;3.40;99.90
5842;DHT22;2947;52.276;9.946;2023-02-01T16:08:22;3.40;99.90
5842;DHT22;2947;52.276;9.946;2023-02-01T16:10:52;3.40;99.90
5842;DHT22;2947;52.276;9.946;2023-02-01T16:13:20;3.50;99.90
5842;DHT22;2947;52.276;9.946;2023-02-01T16:15:47;3.50;99.90
5842;DHT22;2947;52.276;9.946;2023-02-01T16:18:13;3.50;99.90
5842;DHT22;2947;52.276;9.946;2023-02-01T16:20:41;3.50;99.90
5842;DHT22;2947;52.276;9.946;2023-02-01T16:23:08;3.50;99.90
5842;DHT22;2947;52.276;9.946;2023-02-01T16:25:39;3.60;99.90
5842;DHT22;2947;52.276;9.946;2023-02-01T16:28:05;3.60;99.90
5842;DHT22;2947;52.276;9.946;2023-02-01T16:30:33;3.60;99.90
5842;DHT22;2947;52.276;9.946;2023-02-01T16:33:00;3.60;99.90
5842;DHT22;2947;52.276;9.946;2023-02-01T16:35:35;3.70;99.90
5842;DHT22;2947;52.276;9.946;2023-02-01T16:38:12;3.70;99.90
5842;DHT22;2947;52.276;9.946;2023-02-01T16:40:41;3.70;99.90
5842;DHT22;2947;52.276;9.946;2023-02-01T16:45:42;3.80;99.90
5842;DHT22;2947;52.276;9.946;2023-02-01T16:48:21;3.80;99.90
5842;DHT22;2947;52.276;9.946;2023-02-01T16:50:53;3.80;99.90
5842;DHT22;2947;52.276;9.946;2023-02-01T16:53:20;3.80;99.90
5842;DHT22;2947;52.276;9.946;2023-02-01T16:55:47;3.90;99.90
5842;DHT22;2947;52.276;9.946;2023-02-01T16:58:15;3.90;99.90
5842;DHT22;2947;52.276;9.946;2023-02-01T17:00:42;3.90;99.90
5842;DHT22;2947;52.276;9.946;2023-02-01T17:03:13;4.00;99.90
5842;DHT22;2947;52.276;9.946;2023-02-01T17:05:50;4.00;99.90
5842;DHT22;2947;52.276;9.946;2023-02-01T17:08:27;4.10;99.90
5842;DHT22;2947;52.276;9.946;2023-02-01T17:10:55;4.10;99.90
5842;DHT22;2947;52.276;9.946;2023-02-01T17:13:21;4.20;99.90
5842;DHT22;2947;52.276;9.946;2023-02-01T17:15:54;4.20;99.90
5842;DHT22;2947;52.276;9.946;2023-02-01T17:18:23;4.20;99.90
5842;DHT22;2947;52.276;9.946;2023-02-01T17:20:50;4.20;99.90
5842;DHT22;2947;52.276;9.946;2023-02-01T17:23:18;4.30;99.90
5842;DHT22;2947;52.276;9.946;2023-02-01T17:25:44;4.30;99.90
5842;DHT22;2947;52.276;9.946;2023-02-01T17:28:12;4.30;99.90
5842;DHT22;2947;52.276;9.946;2023-02-01T17:30:39;4.30;99.90
5842;DHT22;2947;52.276;9.946;2023-02-01T17:33:23;4.40;99.90
5842;DHT22;2947;52.276;9.946;2023-02-01T17:35:52;4.40;99.90
5842;DHT22;2947;52.276;9.946;2023-02-01T17:38:20;4.40;99.90
5842;DHT22;2947;52.276;9.946;2023-02-01T17:40:46;4.50;99.90
5842;DHT22;2947;52.276;9.946;2023-02-01T17:43:18;4.50;99.90
5842;DHT22;2947;52.276;9.946;2023-02-01T17:45:55;4.50;99.90
5842;DHT22;2947;52.276;9.946;2023-02-01T17:48:22;4.50;99.90
5842;DHT22;2947;52.276;9.946;2023-02-01T17:50:49;4.50;99.90
5842;DHT22;2947;52.276;9.946;2023-02-01T17:53:24;4.50;99.90
5842;DHT22;2947;52.276;9.946;2023-02-01T17:55:51;4.60;99.90
5842;DHT22;2947;52.276;9.946;2023-02-01T17:58:17;4.60;99.90
5842;DHT22;2947;52.276;9.946;2023-02-01T18:00:45;4.60;99.90
5842;DHT22;2947;52.276;9.946;2023-02-01T18:03:25;4.60;99.90
5842;DHT22;2947;52.276;9.946;2023-02-01T18:05:56;4.70;99.90
5842;DHT22;2947;52.276;9.946;2023-02-01T18:08:29;4.70;99.90
5842;DHT22;2947;52.276;9.946;2023-02-01T18:11:00;4.70;99.90
5842;DHT22;2947;52.276;9.946;2023-02-01T18:13:27;4.70;99.90
5842;DHT22;2947;52.276;9.946;2023-02-01T18:15:54;4.80;99.90
5842;DHT22;2947;52.276;9.946;2023-02-01T18:18:20;4.80;99.90
5842;DHT22;2947;52.276;9.946;2023-02-01T18:20:47;4.70;99.90
5842;DHT22;2947;52.276;9.946;2023-02-01T18:23:18;4.80;99.90
5842;DHT22;2947;52.276;9.946;2023-02-01T18:25:47;4.80;99.90
5842;DHT22;2947;52.276;9.946;2023-02-01T18:28:14;4.90;99.90
5842;DHT22;2947;52.276;9.946;2023-02-01T18:30:41;4.90;99.90
5842;DHT22;2947;52.276;9.946;2023-02-01T18:33:13;4.90;99.90
5842;DHT22;2947;52.276;9.946;2023-02-01T18:35:40;4.90;99.90
5842;DHT22;2947;52.276;9.946;2023-02-01T18:38:07;4.90;99.90
5842;DHT22;2947;52.276;9.946;2023-02-01T18:40:36;4.90;99.90
5842;DHT22;2947;52.276;9.946;2023-02-01T18:43:05;4.90;99.90
5842;DHT22;2947;52.276;9.946;2023-02-01T18:45:39;4.90;99.90
5842;DHT22;2947;52.276;9.946;2023-02-01T18:48:08;5.00;99.90
5842;DHT22;2947;52.276;9.946;2023-02-01T18:50:36;5.00;99.90
5842;DHT22;2947;52.276;9.946;2023-02-01T18:53:06;5.00;99.90
5842;DHT22;2947;52.276;9.946;2023-02-01T18:55:35;5.00;99.90
5842;DHT22;2947;52.276;9.946;2023-02-01T18:58:03;5.00;99.90
5842;DHT22;2947;52.276;9.946;2023-02-01T19:00:33;5.00;99.90
5842;DHT22;2947;52.276;9.946;2023-02-01T19:03:00;5.00;99.90
5842;DHT22;2947;52.276;9.946;2023-02-01T19:05:26;4.70;99.50
5842;DHT22;2947;52.276;9.946;2023-02-01T19:07:52;4.40;99.90
5842;DHT22;2947;52.276;9.946;2023-02-01T19:10:22;4.20;99.90
5842;DHT22;2947;52.276;9.946;2023-02-01T19:12:51;4.20;99.90
5842;DHT22;2947;52.276;9.946;2023-02-01T19:15:17;4.00;99.90
5842;DHT22;2947;52.276;9.946;2023-02-01T19:17:46;4.00;99.90
5842;DHT22;2947;52.276;9.946;2023-02-01T19:20:17;3.90;99.90
5842;DHT22;2947;52.276;9.946;2023-02-01T19:22:44;3.90;99.90